sensor_id;sensor_type;location;lat;lon;timestamp;P1;durP1;ratioP1;P2;durP2;ratioP2
16117;SDS011;8163;50.118;5.342;2022-10-16T00:00:44;1.63;;;1.52;;
16117;SDS011;8163;50.118;5.342;2022-10-16T00:03:12;1.60;;;1.50;;
16117;SDS011;8163;50.118;5.342;2022-10-16T00:05:39;3.05;;;1.23;;
16117;SDS011;8163;50.118;5.342;2022-10-16T00:08:08;1.80;;;1.70;;
16117;SDS011;8163;50.118;5.342;2022-10-16T00:10:37;1.42;;;1.30;;
16117;SDS011;8163;50.118;5.342;2022-10-16T00:13:05;1.83;;;1.38;;
16117;SDS011;8163;50.118;5.342;2022-10-16T00:15:33;1.60;;;1.50;;
16117;SDS011;8163;50.118;5.342;2022-10-16T00:18:02;5.43;;;1.50;;
16117;SDS011;8163;50.118;5.342;2022-10-16T00:20:29;1.30;;;1.30;;
16117;SDS011;8163;50.118;5.342;2022-10-16T00:22:58;1.30;;;1.30;;
16117;SDS011;8163;50.118;5.342;2022-10-16T00:25:25;1.30;;;1.20;;
16117;SDS011;8163;50.118;5.342;2022-10-16T00:27:52;2.35;;;1.77;;
16117;SDS011;8163;50.118;5.342;2022-10-16T00:30:20;1.48;;;1.40;;
16117;SDS011;8163;50.118;5.342;2022-10-16T00:32:48;5.18;;;1.85;;
16117;SDS011;8163;50.118;5.342;2022-10-16T00:35:15;1.63;;;1.52;;
16117;SDS011;8163;50.118;5.342;2022-10-16T00:37:42;1.60;;;1.50;;
16117;SDS011;8163;50.118;5.342;2022-10-16T00:40:09;3.13;;;1.80;;
16117;SDS011;8163;50.118;5.342;2022-10-16T00:42:37;1.48;;;1.38;;
16117;SDS011;8163;50.118;5.342;2022-10-16T00:45:04;2.42;;;1.60;;
16117;SDS011;8163;50.118;5.342;2022-10-16T00:47:34;2.42;;;1.60;;
16117;SDS011;8163;50.118;5.342;2022-10-16T00:50:04;2.90;;;1.55;;
16117;SDS011;8163;50.118;5.342;2022-10-16T00:52:34;2.45;;;1.83;;
16117;SDS011;8163;50.118;5.342;2022-10-16T00:55:03;1.70;;;1.60;;
16117;SDS011;8163;50.118;5.342;2022-10-16T00:57:32;4.20;;;2.05;;
16117;SDS011;8163;50.118;5.342;2022-10-16T00:59:59;1.70;;;1.60;;
16117;SDS011;8163;50.118;5.342;2022-10-16T01:02:27;2.70;;;1.42;;
16117;SDS011;8163;50.118;5.342;2022-10-16T01:04:55;2.65;;;1.58;;
16117;SDS011;8163;50.118;5.342;2022-10-16T01:07:30;3.83;;;1.70;;
16117;SDS011;8163;50.118;5.342;2022-10-16T01:10:07;2.63;;;1.80;;
16117;SDS011;8163;50.118;5.342;2022-10-16T01:12:44;1.80;;;1.70;;
16117;SDS011;8163;50.118;5.342;2022-10-16T01:15:17;1.95;;;1.75;;
16117;SDS011;8163;50.118;5.342;2022-10-16T01:17:49;3.22;;;1.80;;
16117;SDS011;8163;50.118;5.342;2022-10-16T01:20:26;9.13;;;2.00;;
16117;SDS011;8163;50.118;5.342;2022-10-16T01:22:59;5.38;;;2.08;;
16117;SDS011;8163;50.118;5.342;2022-10-16T01:25:36;2.10;;;1.90;;
16117;SDS011;8163;50.118;5.342;2022-10-16T01:28:16;4.57;;;1.85;;
16117;SDS011;8163;50.118;5.342;2022-10-16T01:30:48;3.35;;;1.75;;
16117;SDS011;8163;50.118;5.342;2022-10-16T01:33:23;2.20;;;1.83;;
16117;SDS011;8163;50.118;5.342;2022-10-16T01:35:54;3.70;;;1.98;;
16117;SDS011;8163;50.118;5.342;2022-10-16T01:38:25;2.25;;;2.10;;
16117;SDS011;8163;50.118;5.342;2022-10-16T01:40:57;2.03;;;1.92;;
16117;SDS011;8163;50.118;5.342;2022-10-16T01:43:36;2.38;;;2.15;;
16117;SDS011;8163;50.118;5.342;2022-10-16T01:46:06;4.18;;;2.08;;
16117;SDS011;8163;50.118;5.342;2022-10-16T01:48:35;1.92;;;1.70;;
16117;SDS011;8163;50.118;5.342;2022-10-16T01:51:03;2.20;;;2.10;;
16117;SDS011;8163;50.118;5.342;2022-10-16T01:53:33;2.00;;;1.77;;
16117;SDS011;8163;50.118;5.342;2022-10-16T01:56:01;2.20;;;2.03;;
16117;SDS011;8163;50.118;5.342;2022-10-16T01:58:30;2.03;;;1.85;;
16117;SDS011;8163;50.118;5.342;2022-10-16T02:01:02;3.72;;;2.00;;
16117;SDS011;8163;50.118;5.342;2022-10-16T02:03:34;6.85;;;2.20;;
16117;SDS011;8163;50.118;5.342;2022-10-16T02:06:02;2.45;;;2.00;;
16117;SDS011;8163;50.118;5.342;2022-10-16T02:08:29;2.95;;;1.98;;
16117;SDS011;8163;50.118;5.342;2022-10-16T02:10:57;2.03;;;1.90;;
16117;SDS011;8163;50.118;5.342;2022-10-16T02:13:27;2.35;;;2.10;;
16117;SDS011;8163;50.118;5.342;2022-10-16T02:15:57;6.53;;;2.03;;
16117;SDS011;8163;50.118;5.342;2022-10-16T02:18:25;1.95;;;1.70;;
16117;SDS011;8163;50.118;5.342;2022-10-16T02:20:55;4.43;;;2.40;;
16117;SDS011;8163;50.118;5.342;2022-10-16T02:23:28;3.47;;;2.30;;
16117;SDS011;8163;50.118;5.342;2022-10-16T02:26:00;3.35;;;1.88;;
16117;SDS011;8163;50.118;5.342;2022-10-16T02:28:31;3.28;;;2.33;;
16117;SDS011;8163;50.118;5.342;2022-10-16T02:31:04;3.92;;;2.15;;
16117;SDS011;8163;50.118;5.342;2022-10-16T02:33:36;6.40;;;2.22;;
16117;SDS011;8163;50.118;5.342;2022-10-16T02:36:05;4.18;;;1.90;;
16117;SDS011;8163;50.118;5.342;2022-10-16T02:38:33;2.03;;;1.92;;
16117;SDS011;8163;50.118;5.342;2022-10-16T02:41:01;2.10;;;1.95;;
16117;SDS011;8163;50.118;5.342;2022-10-16T02:43:29;2.13;;;1.92;;
16117;SDS011;8163;50.118;5.342;2022-10-16T02:45:57;4.32;;;1.95;;
16117;SDS011;8163;50.118;5.342;2022-10-16T02:48:24;4.35;;;2.00;;
16117;SDS011;8163;50.118;5.342;2022-10-16T02:50:53;4.97;;;2.10;;
16117;SDS011;8163;50.118;5.342;2022-10-16T02:53:20;2.00;;;1.80;;
16117;SDS011;8163;50.118;5.342;2022-10-16T02:55:47;2.03;;;1.60;;
16117;SDS011;8163;50.118;5.342;2022-10-16T02:58:14;4.45;;;1.85;;
16117;SDS011;8163;50.118;5.342;2022-10-16T03:00:41;2.25;;;1.63;;
16117;SDS011;8163;50.118;5.342;2022-10-16T03:03:08;2.72;;;1.83;;
16117;SDS011;8163;50.118;5.342;2022-10-16T03:05:34;2.90;;;1.55;;
16117;SDS011;8163;50.118;5.342;2022-10-16T03:08:03;2.05;;;1.92;;
16117;SDS011;8163;50.118;5.342;2022-10-16T03:10:31;2.85;;;1.90;;
16117;SDS011;8163;50.118;5.342;2022-10-16T03:12:58;4.10;;;2.60;;
16117;SDS011;8163;50.118;5.342;2022-10-16T03:15:24;3.40;;;2.03;;
16117;SDS011;8163;50.118;5.342;2022-10-16T03:17:53;1.85;;;1.75;;
16117;SDS011;8163;50.118;5.342;2022-10-16T03:20:20;5.72;;;1.90;;
16117;SDS011;8163;50.118;5.342;2022-10-16T03:22:47;4.38;;;1.80;;
16117;SDS011;8163;50.118;5.342;2022-10-16T03:25:15;2.35;;;2.13;;
16117;SDS011;8163;50.118;5.342;2022-10-16T03:27:42;2.95;;;1.98;;
16117;SDS011;8163;50.118;5.342;2022-10-16T03:30:09;2.15;;;1.92;;
16117;SDS011;8163;50.118;5.342;2022-10-16T03:32:37;3.78;;;2.05;;
16117;SDS011;8163;50.118;5.342;2022-10-16T03:35:04;2.47;;;1.73;;
16117;SDS011;8163;50.118;5.342;2022-10-16T03:37:32;2.60;;;1.90;;
16117;SDS011;8163;50.118;5.342;2022-10-16T03:39:59;4.25;;;2.03;;
16117;SDS011;8163;50.118;5.342;2022-10-16T03:42:27;1.75;;;1.65;;
16117;SDS011;8163;50.118;5.342;2022-10-16T03:44:54;2.13;;;1.73;;
16117;SDS011;8163;50.118;5.342;2022-10-16T03:47:21;1.92;;;1.60;;
16117;SDS011;8163;50.118;5.342;2022-10-16T03:49:48;3.47;;;1.67;;
16117;SDS011;8163;50.118;5.342;2022-10-16T03:52:16;4.07;;;1.50;;
16117;SDS011;8163;50.118;5.342;2022-10-16T03:54:44;1.67;;;1.58;;
16117;SDS011;8163;50.118;5.342;2022-10-16T03:57:11;2.25;;;1.38;;
16117;SDS011;8163;50.118;5.342;2022-10-16T03:59:39;4.18;;;1.67;;
16117;SDS011;8163;50.118;5.342;2022-10-16T04:02:06;4.50;;;1.52;;
16117;SDS011;8163;50.118;5.342;2022-10-16T04:04:33;1.60;;;1.50;;
16117;SDS011;8163;50.118;5.342;2022-10-16T04:07:00;7.40;;;1.95;;
16117;SDS011;8163;50.118;5.342;2022-10-16T04:09:27;1.60;;;1.50;;
16117;SDS011;8163;50.118;5.342;2022-10-16T04:11:54;3.88;;;1.90;;
16117;SDS011;8163;50.118;5.342;2022-10-16T04:14:21;2.28;;;1.58;;
16117;SDS011;8163;50.118;5.342;2022-10-16T04:16:50;2.35;;;1.52;;
16117;SDS011;8163;50.118;5.342;2022-10-16T04:19:16;1.95;;;1.65;;
16117;SDS011;8163;50.118;5.342;2022-10-16T04:21:44;2.75;;;1.50;;
16117;SDS011;8163;50.118;5.342;2022-10-16T04:24:11;3.47;;;1.33;;
16117;SDS011;8163;50.118;5.342;2022-10-16T04:26:37;1.23;;;1.23;;
16117;SDS011;8163;50.118;5.342;2022-10-16T04:29:04;1.70;;;1.55;;
16117;SDS011;8163;50.118;5.342;2022-10-16T04:31:32;1.67;;;1.58;;
16117;SDS011;8163;50.118;5.342;2022-10-16T04:34:00;2.50;;;1.30;;
16117;SDS011;8163;50.118;5.342;2022-10-16T04:36:27;1.95;;;1.30;;
16117;SDS011;8163;50.118;5.342;2022-10-16T04:38:54;5.32;;;1.70;;
16117;SDS011;8163;50.118;5.342;2022-10-16T04:41:21;2.47;;;1.85;;
16117;SDS011;8163;50.118;5.342;2022-10-16T04:43:48;3.22;;;1.48;;
16117;SDS011;8163;50.118;5.342;2022-10-16T04:46:15;1.63;;;1.50;;
16117;SDS011;8163;50.118;5.342;2022-10-16T04:48:41;1.98;;;1.30;;
16117;SDS011;8163;50.118;5.342;2022-10-16T04:51:10;2.17;;;1.40;;
16117;SDS011;8163;50.118;5.342;2022-10-16T04:53:37;4.60;;;2.00;;
16117;SDS011;8163;50.118;5.342;2022-10-16T04:56:04;1.20;;;1.20;;
16117;SDS011;8163;50.118;5.342;2022-10-16T04:58:31;2.38;;;1.30;;
16117;SDS011;8163;50.118;5.342;2022-10-16T05:00:58;2.55;;;1.48;;
16117;SDS011;8163;50.118;5.342;2022-10-16T05:03:25;3.45;;;1.60;;
16117;SDS011;8163;50.118;5.342;2022-10-16T05:05:51;1.63;;;1.52;;
16117;SDS011;8163;50.118;5.342;2022-10-16T05:08:20;2.05;;;1.50;;
16117;SDS011;8163;50.118;5.342;2022-10-16T05:10:47;3.53;;;1.63;;
16117;SDS011;8163;50.118;5.342;2022-10-16T05:13:13;3.97;;;1.80;;
16117;SDS011;8163;50.118;5.342;2022-10-16T05:15:40;6.00;;;1.65;;
16117;SDS011;8163;50.118;5.342;2022-10-16T05:18:08;1.73;;;1.58;;
16117;SDS011;8163;50.118;5.342;2022-10-16T05:20:34;3.38;;;1.60;;
16117;SDS011;8163;50.118;5.342;2022-10-16T05:23:02;4.03;;;1.50;;
16117;SDS011;8163;50.118;5.342;2022-10-16T05:25:30;2.20;;;2.10;;
16117;SDS011;8163;50.118;5.342;2022-10-16T05:27:57;3.20;;;1.70;;
16117;SDS011;8163;50.118;5.342;2022-10-16T05:30:23;4.35;;;2.00;;
16117;SDS011;8163;50.118;5.342;2022-10-16T05:32:50;4.20;;;2.15;;
16117;SDS011;8163;50.118;5.342;2022-10-16T05:35:18;2.75;;;1.88;;
16117;SDS011;8163;50.118;5.342;2022-10-16T05:37:45;1.80;;;1.70;;
16117;SDS011;8163;50.118;5.342;2022-10-16T05:40:12;1.77;;;1.67;;
16117;SDS011;8163;50.118;5.342;2022-10-16T05:42:41;3.38;;;2.00;;
16117;SDS011;8163;50.118;5.342;2022-10-16T05:45:09;2.53;;;1.58;;
16117;SDS011;8163;50.118;5.342;2022-10-16T05:47:37;4.63;;;1.80;;
16117;SDS011;8163;50.118;5.342;2022-10-16T05:50:04;6.60;;;1.60;;
16117;SDS011;8163;50.118;5.342;2022-10-16T05:52:31;3.25;;;1.90;;
16117;SDS011;8163;50.118;5.342;2022-10-16T05:54:58;3.47;;;1.90;;
16117;SDS011;8163;50.118;5.342;2022-10-16T05:57:25;3.22;;;1.60;;
16117;SDS011;8163;50.118;5.342;2022-10-16T05:59:53;1.77;;;1.67;;
16117;SDS011;8163;50.118;5.342;2022-10-16T06:02:20;5.63;;;2.03;;
16117;SDS011;8163;50.118;5.342;2022-10-16T06:04:47;2.80;;;1.55;;
16117;SDS011;8163;50.118;5.342;2022-10-16T06:07:14;5.45;;;2.00;;
16117;SDS011;8163;50.118;5.342;2022-10-16T06:09:41;1.58;;;1.45;;
16117;SDS011;8163;50.118;5.342;2022-10-16T06:12:08;2.88;;;1.60;;
16117;SDS011;8163;50.118;5.342;2022-10-16T06:14:35;3.65;;;1.88;;
16117;SDS011;8163;50.118;5.342;2022-10-16T06:17:03;3.75;;;1.85;;
16117;SDS011;8163;50.118;5.342;2022-10-16T06:19:30;5.10;;;1.60;;
16117;SDS011;8163;50.118;5.342;2022-10-16T06:21:57;2.55;;;2.00;;
16117;SDS011;8163;50.118;5.342;2022-10-16T06:24:25;3.95;;;1.88;;
16117;SDS011;8163;50.118;5.342;2022-10-16T06:26:52;3.58;;;1.77;;
16117;SDS011;8163;50.118;5.342;2022-10-16T06:29:19;2.97;;;1.50;;
16117;SDS011;8163;50.118;5.342;2022-10-16T06:31:46;6.60;;;1.95;;
16117;SDS011;8163;50.118;5.342;2022-10-16T06:34:14;1.50;;;1.40;;
16117;SDS011;8163;50.118;5.342;2022-10-16T06:36:41;4.07;;;1.60;;
16117;SDS011;8163;50.118;5.342;2022-10-16T06:39:08;4.13;;;1.85;;
16117;SDS011;8163;50.118;5.342;2022-10-16T06:41:35;2.88;;;1.58;;
16117;SDS011;8163;50.118;5.342;2022-10-16T06:44:04;1.98;;;1.63;;
16117;SDS011;8163;50.118;5.342;2022-10-16T06:46:32;1.42;;;1.30;;
16117;SDS011;8163;50.118;5.342;2022-10-16T06:49:00;1.60;;;1.30;;
16117;SDS011;8163;50.118;5.342;2022-10-16T06:51:28;1.30;;;1.23;;
16117;SDS011;8163;50.118;5.342;2022-10-16T06:53:57;2.03;;;1.33;;
16117;SDS011;8163;50.118;5.342;2022-10-16T06:56:25;2.25;;;1.58;;
16117;SDS011;8163;50.118;5.342;2022-10-16T06:58:54;5.55;;;1.42;;
16117;SDS011;8163;50.118;5.342;2022-10-16T07:01:22;4.35;;;1.30;;
16117;SDS011;8163;50.118;5.342;2022-10-16T07:03:50;1.70;;;1.40;;
16117;SDS011;8163;50.118;5.342;2022-10-16T07:06:19;1.90;;;1.40;;
16117;SDS011;8163;50.118;5.342;2022-10-16T07:08:49;3.08;;;1.13;;
16117;SDS011;8163;50.118;5.342;2022-10-16T07:11:17;2.72;;;1.30;;
16117;SDS011;8163;50.118;5.342;2022-10-16T07:13:45;4.32;;;1.70;;
16117;SDS011;8163;50.118;5.342;2022-10-16T07:16:14;2.38;;;1.38;;
16117;SDS011;8163;50.118;5.342;2022-10-16T07:18:43;2.38;;;1.35;;
16117;SDS011;8163;50.118;5.342;2022-10-16T07:21:12;1.83;;;1.35;;
16117;SDS011;8163;50.118;5.342;2022-10-16T07:23:41;4.25;;;1.42;;
16117;SDS011;8163;50.118;5.342;2022-10-16T07:26:10;2.47;;;2.28;;
16117;SDS011;8163;50.118;5.342;2022-10-16T07:28:37;2.85;;;1.20;;
16117;SDS011;8163;50.118;5.342;2022-10-16T07:31:07;1.17;;;1.10;;
16117;SDS011;8163;50.118;5.342;2022-10-16T07:33:37;3.10;;;1.45;;
16117;SDS011;8163;50.118;5.342;2022-10-16T07:36:04;1.15;;;1.15;;
16117;SDS011;8163;50.118;5.342;2022-10-16T07:38:32;3.78;;;1.40;;
16117;SDS011;8163;50.118;5.342;2022-10-16T07:40:59;2.65;;;1.33;;
16117;SDS011;8163;50.118;5.342;2022-10-16T07:43:28;1.30;;;1.20;;
16117;SDS011;8163;50.118;5.342;2022-10-16T07:45:56;6.65;;;1.52;;
16117;SDS011;8163;50.118;5.342;2022-10-16T07:48:23;4.43;;;1.20;;
16117;SDS011;8163;50.118;5.342;2022-10-16T07:50:56;2.97;;;0.90;;
16117;SDS011;8163;50.118;5.342;2022-10-16T07:53:23;3.15;;;1.05;;
16117;SDS011;8163;50.118;5.342;2022-10-16T07:55:50;2.17;;;0.90;;
16117;SDS011;8163;50.118;5.342;2022-10-16T07:58:17;2.05;;;1.00;;
16117;SDS011;8163;50.118;5.342;2022-10-16T08:00:45;2.15;;;1.50;;
16117;SDS011;8163;50.118;5.342;2022-10-16T08:03:12;1.23;;;1.00;;
16117;SDS011;8163;50.118;5.342;2022-10-16T08:05:39;1.15;;;0.93;;
16117;SDS011;8163;50.118;5.342;2022-10-16T08:08:10;5.47;;;0.90;;
16117;SDS011;8163;50.118;5.342;2022-10-16T08:10:39;3.20;;;1.10;;
16117;SDS011;8163;50.118;5.342;2022-10-16T08:13:07;0.93;;;0.93;;
16117;SDS011;8163;50.118;5.342;2022-10-16T08:15:34;1.05;;;1.00;;
16117;SDS011;8163;50.118;5.342;2022-10-16T08:18:03;2.05;;;1.20;;
16117;SDS011;8163;50.118;5.342;2022-10-16T08:20:31;2.40;;;1.10;;
16117;SDS011;8163;50.118;5.342;2022-10-16T08:22:59;4.05;;;1.08;;
16117;SDS011;8163;50.118;5.342;2022-10-16T08:25:26;0.90;;;0.90;;
16117;SDS011;8163;50.118;5.342;2022-10-16T08:27:53;1.85;;;0.90;;
16117;SDS011;8163;50.118;5.342;2022-10-16T08:30:22;0.82;;;0.77;;
16117;SDS011;8163;50.118;5.342;2022-10-16T08:32:50;1.15;;;1.00;;
16117;SDS011;8163;50.118;5.342;2022-10-16T08:35:18;2.22;;;0.85;;
16117;SDS011;8163;50.118;5.342;2022-10-16T08:37:45;1.20;;;1.00;;
16117;SDS011;8163;50.118;5.342;2022-10-16T08:40:15;3.47;;;0.98;;
16117;SDS011;8163;50.118;5.342;2022-10-16T08:42:53;0.98;;;0.93;;
16117;SDS011;8163;50.118;5.342;2022-10-16T08:45:42;2.38;;;1.00;;
16117;SDS011;8163;50.118;5.342;2022-10-16T08:48:18;0.88;;;0.70;;
16117;SDS011;8163;50.118;5.342;2022-10-16T08:50:50;1.13;;;0.90;;
16117;SDS011;8163;50.118;5.342;2022-10-16T08:53:20;1.60;;;0.90;;
16117;SDS011;8163;50.118;5.342;2022-10-16T08:55:51;1.80;;;0.98;;
16117;SDS011;8163;50.118;5.342;2022-10-16T08:58:19;2.72;;;1.00;;
16117;SDS011;8163;50.118;5.342;2022-10-16T09:00:51;1.67;;;0.70;;
16117;SDS011;8163;50.118;5.342;2022-10-16T09:03:28;1.23;;;1.10;;
16117;SDS011;8163;50.118;5.342;2022-10-16T09:06:21;0.80;;;0.80;;
16117;SDS011;8163;50.118;5.342;2022-10-16T09:09:09;2.03;;;1.20;;
16117;SDS011;8163;50.118;5.342;2022-10-16T09:11:47;2.55;;;1.00;;
16117;SDS011;8163;50.118;5.342;2022-10-16T09:14:23;1.23;;;0.80;;
16117;SDS011;8163;50.118;5.342;2022-10-16T09:17:04;2.58;;;0.82;;
16117;SDS011;8163;50.118;5.342;2022-10-16T09:19:41;1.02;;;0.80;;
16117;SDS011;8163;50.118;5.342;2022-10-16T09:22:16;0.90;;;0.77;;
16117;SDS011;8163;50.118;5.342;2022-10-16T09:24:44;0.90;;;0.82;;
16117;SDS011;8163;50.118;5.342;2022-10-16T09:27:11;2.03;;;0.70;;
16117;SDS011;8163;50.118;5.342;2022-10-16T09:29:40;0.95;;;0.90;;
16117;SDS011;8163;50.118;5.342;2022-10-16T09:32:10;1.67;;;1.00;;
16117;SDS011;8163;50.118;5.342;2022-10-16T09:34:39;1.27;;;1.17;;
16117;SDS011;8163;50.118;5.342;2022-10-16T09:37:11;2.40;;;1.30;;
16117;SDS011;8163;50.118;5.342;2022-10-16T09:39:45;4.43;;;1.23;;
16117;SDS011;8163;50.118;5.342;2022-10-16T09:42:14;1.35;;;0.98;;
16117;SDS011;8163;50.118;5.342;2022-10-16T09:44:46;1.38;;;1.13;;
16117;SDS011;8163;50.118;5.342;2022-10-16T09:47:16;1.10;;;1.00;;
16117;SDS011;8163;50.118;5.342;2022-10-16T09:49:52;1.77;;;1.30;;
16117;SDS011;8163;50.118;5.342;2022-10-16T09:52:24;0.95;;;0.80;;
16117;SDS011;8163;50.118;5.342;2022-10-16T09:54:54;0.98;;;0.80;;
16117;SDS011;8163;50.118;5.342;2022-10-16T09:57:23;0.82;;;0.80;;
16117;SDS011;8163;50.118;5.342;2022-10-16T09:59:50;1.33;;;0.80;;
16117;SDS011;8163;50.118;5.342;2022-10-16T10:02:19;2.63;;;1.00;;
16117;SDS011;8163;50.118;5.342;2022-10-16T10:04:54;1.58;;;0.98;;
16117;SDS011;8163;50.118;5.342;2022-10-16T10:07:24;1.23;;;0.93;;
16117;SDS011;8163;50.118;5.342;2022-10-16T10:09:53;1.70;;;0.90;;
16117;SDS011;8163;50.118;5.342;2022-10-16T10:12:24;1.38;;;0.90;;
16117;SDS011;8163;50.118;5.342;2022-10-16T10:14:52;1.25;;;0.82;;
16117;SDS011;8163;50.118;5.342;2022-10-16T10:17:21;1.10;;;0.85;;
16117;SDS011;8163;50.118;5.342;2022-10-16T10:19:50;0.65;;;0.65;;
16117;SDS011;8163;50.118;5.342;2022-10-16T10:22:27;1.05;;;0.90;;
16117;SDS011;8163;50.118;5.342;2022-10-16T10:25:14;3.22;;;0.80;;
16117;SDS011;8163;50.118;5.342;2022-10-16T10:27:57;0.82;;;0.82;;
16117;SDS011;8163;50.118;5.342;2022-10-16T10:30:35;1.05;;;0.88;;
16117;SDS011;8163;50.118;5.342;2022-10-16T10:33:09;2.83;;;0.85;;
16117;SDS011;8163;50.118;5.342;2022-10-16T10:35:44;0.90;;;0.55;;
16117;SDS011;8163;50.118;5.342;2022-10-16T10:38:30;1.27;;;1.02;;
16117;SDS011;8163;50.118;5.342;2022-10-16T10:41:11;9.85;;;1.58;;
16117;SDS011;8163;50.118;5.342;2022-10-16T10:44:11;1.52;;;0.88;;
16117;SDS011;8163;50.118;5.342;2022-10-16T10:46:50;1.00;;;0.80;;
16117;SDS011;8163;50.118;5.342;2022-10-16T10:52:13;1.77;;;0.70;;
16117;SDS011;8163;50.118;5.342;2022-10-16T10:55:01;1.20;;;0.60;;
16117;SDS011;8163;50.118;5.342;2022-10-16T10:57:37;2.03;;;0.95;;
16117;SDS011;8163;50.118;5.342;2022-10-16T11:00:20;0.82;;;0.60;;
16117;SDS011;8163;50.118;5.342;2022-10-16T11:02:50;0.88;;;0.80;;
16117;SDS011;8163;50.118;5.342;2022-10-16T11:05:27;2.33;;;0.75;;
16117;SDS011;8163;50.118;5.342;2022-10-16T11:08:07;1.42;;;0.80;;
16117;SDS011;8163;50.118;5.342;2022-10-16T11:10:42;1.58;;;0.60;;
16117;SDS011;8163;50.118;5.342;2022-10-16T11:13:20;1.33;;;0.60;;
16117;SDS011;8163;50.118;5.342;2022-10-16T11:15:53;0.40;;;0.40;;
16117;SDS011;8163;50.118;5.342;2022-10-16T11:18:24;1.10;;;0.60;;
16117;SDS011;8163;50.118;5.342;2022-10-16T11:20:57;0.95;;;0.55;;
16117;SDS011;8163;50.118;5.342;2022-10-16T11:23:28;0.52;;;0.52;;
16117;SDS011;8163;50.118;5.342;2022-10-16T11:25:59;0.55;;;0.55;;
16117;SDS011;8163;50.118;5.342;2022-10-16T11:28:33;0.63;;;0.60;;
16117;SDS011;8163;50.118;5.342;2022-10-16T11:31:05;0.65;;;0.47;;
16117;SDS011;8163;50.118;5.342;2022-10-16T11:33:37;1.13;;;0.52;;
16117;SDS011;8163;50.118;5.342;2022-10-16T11:36:11;1.63;;;0.40;;
16117;SDS011;8163;50.118;5.342;2022-10-16T11:38:43;0.45;;;0.45;;
16117;SDS011;8163;50.118;5.342;2022-10-16T11:41:18;0.68;;;0.57;;
16117;SDS011;8163;50.118;5.342;2022-10-16T11:43:56;1.13;;;0.60;;
16117;SDS011;8163;50.118;5.342;2022-10-16T11:46:40;4.45;;;1.35;;
16117;SDS011;8163;50.118;5.342;2022-10-16T11:49:12;0.40;;;0.40;;
16117;SDS011;8163;50.118;5.342;2022-10-16T11:51:42;0.50;;;0.50;;
16117;SDS011;8163;50.118;5.342;2022-10-16T11:54:16;0.40;;;0.40;;
16117;SDS011;8163;50.118;5.342;2022-10-16T11:56:48;3.97;;;1.05;;
16117;SDS011;8163;50.118;5.342;2022-10-16T11:59:23;0.45;;;0.45;;
16117;SDS011;8163;50.118;5.342;2022-10-16T12:01:57;0.98;;;0.47;;
16117;SDS011;8163;50.118;5.342;2022-10-16T12:04:41;0.82;;;0.82;;
16117;SDS011;8163;50.118;5.342;2022-10-16T12:07:13;0.73;;;0.73;;
16117;SDS011;8163;50.118;5.342;2022-10-16T12:09:43;1.00;;;0.60;;
16117;SDS011;8163;50.118;5.342;2022-10-16T12:12:23;6.03;;;0.77;;
16117;SDS011;8163;50.118;5.342;2022-10-16T12:15:01;0.60;;;0.60;;
16117;SDS011;8163;50.118;5.342;2022-10-16T12:17:43;1.65;;;0.80;;
16117;SDS011;8163;50.118;5.342;2022-10-16T12:22:59;1.15;;;0.50;;
16117;SDS011;8163;50.118;5.342;2022-10-16T12:25:29;0.40;;;0.40;;
16117;SDS011;8163;50.118;5.342;2022-10-16T12:28:01;0.60;;;0.50;;
16117;SDS011;8163;50.118;5.342;2022-10-16T12:30:32;0.55;;;0.50;;
16117;SDS011;8163;50.118;5.342;2022-10-16T12:33:02;2.88;;;0.50;;
16117;SDS011;8163;50.118;5.342;2022-10-16T12:35:32;0.30;;;0.30;;
16117;SDS011;8163;50.118;5.342;2022-10-16T12:38:05;1.02;;;0.50;;
16117;SDS011;8163;50.118;5.342;2022-10-16T12:40:35;0.90;;;0.40;;
16117;SDS011;8163;50.118;5.342;2022-10-16T12:46:22;0.50;;;0.50;;
16117;SDS011;8163;50.118;5.342;2022-10-16T12:49:05;0.70;;;0.68;;
16117;SDS011;8163;50.118;5.342;2022-10-16T12:51:48;0.30;;;0.30;;
16117;SDS011;8163;50.118;5.342;2022-10-16T12:54:15;1.25;;;0.40;;
16117;SDS011;8163;50.118;5.342;2022-10-16T12:56:50;0.47;;;0.47;;
16117;SDS011;8163;50.118;5.342;2022-10-16T12:59:33;2.00;;;0.52;;
16117;SDS011;8163;50.118;5.342;2022-10-16T13:02:29;1.10;;;0.60;;
16117;SDS011;8163;50.118;5.342;2022-10-16T13:05:26;0.40;;;0.40;;
16117;SDS011;8163;50.118;5.342;2022-10-16T13:08:04;0.40;;;0.40;;
16117;SDS011;8163;50.118;5.342;2022-10-16T13:10:46;0.60;;;0.60;;
16117;SDS011;8163;50.118;5.342;2022-10-16T13:13:34;0.50;;;0.50;;
16117;SDS011;8163;50.118;5.342;2022-10-16T13:16:14;0.55;;;0.50;;
16117;SDS011;8163;50.118;5.342;2022-10-16T13:18:54;0.43;;;0.43;;
16117;SDS011;8163;50.118;5.342;2022-10-16T13:21:33;1.00;;;0.73;;
16117;SDS011;8163;50.118;5.342;2022-10-16T13:24:09;1.70;;;0.60;;
16117;SDS011;8163;50.118;5.342;2022-10-16T13:26:46;0.80;;;0.40;;
16117;SDS011;8163;50.118;5.342;2022-10-16T13:29:18;0.52;;;0.40;;
16117;SDS011;8163;50.118;5.342;2022-10-16T13:31:46;0.50;;;0.50;;
16117;SDS011;8163;50.118;5.342;2022-10-16T13:34:15;1.30;;;0.50;;
16117;SDS011;8163;50.118;5.342;2022-10-16T13:36:45;0.68;;;0.57;;
16117;SDS011;8163;50.118;5.342;2022-10-16T13:39:16;0.75;;;0.75;;
16117;SDS011;8163;50.118;5.342;2022-10-16T13:41:57;1.85;;;1.70;;
16117;SDS011;8163;50.118;5.342;2022-10-16T13:44:28;0.63;;;0.50;;
16117;SDS011;8163;50.118;5.342;2022-10-16T13:47:10;0.52;;;0.52;;
16117;SDS011;8163;50.118;5.342;2022-10-16T13:49:45;0.60;;;0.60;;
16117;SDS011;8163;50.118;5.342;2022-10-16T13:52:17;0.63;;;0.60;;
16117;SDS011;8163;50.118;5.342;2022-10-16T13:54:45;0.50;;;0.50;;
16117;SDS011;8163;50.118;5.342;2022-10-16T13:57:13;0.52;;;0.52;;
16117;SDS011;8163;50.118;5.342;2022-10-16T13:59:40;0.50;;;0.50;;
16117;SDS011;8163;50.118;5.342;2022-10-16T14:02:10;1.00;;;0.70;;
16117;SDS011;8163;50.118;5.342;2022-10-16T14:04:47;4.13;;;1.00;;
16117;SDS011;8163;50.118;5.342;2022-10-16T14:07:18;0.50;;;0.50;;
16117;SDS011;8163;50.118;5.342;2022-10-16T14:09:49;0.52;;;0.52;;
16117;SDS011;8163;50.118;5.342;2022-10-16T14:12:18;1.00;;;0.70;;
16117;SDS011;8163;50.118;5.342;2022-10-16T14:14:46;0.60;;;0.60;;
16117;SDS011;8163;50.118;5.342;2022-10-16T14:17:18;1.38;;;0.93;;
16117;SDS011;8163;50.118;5.342;2022-10-16T14:19:52;1.08;;;0.80;;
16117;SDS011;8163;50.118;5.342;2022-10-16T14:22:23;0.80;;;0.80;;
16117;SDS011;8163;50.118;5.342;2022-10-16T14:24:57;0.68;;;0.68;;
16117;SDS011;8163;50.118;5.342;2022-10-16T14:27:26;0.60;;;0.60;;
16117;SDS011;8163;50.118;5.342;2022-10-16T14:30:12;1.45;;;0.85;;
16117;SDS011;8163;50.118;5.342;2022-10-16T14:32:42;0.77;;;0.77;;
16117;SDS011;8163;50.118;5.342;2022-10-16T14:35:23;2.22;;;0.90;;
16117;SDS011;8163;50.118;5.342;2022-10-16T14:37:53;1.02;;;0.93;;
16117;SDS011;8163;50.118;5.342;2022-10-16T14:40:20;2.50;;;0.90;;
16117;SDS011;8163;50.118;5.342;2022-10-16T14:42:50;0.80;;;0.80;;
16117;SDS011;8163;50.118;5.342;2022-10-16T14:45:18;1.10;;;1.00;;
16117;SDS011;8163;50.118;5.342;2022-10-16T14:47:48;1.30;;;1.20;;
16117;SDS011;8163;50.118;5.342;2022-10-16T14:50:17;0.93;;;0.93;;
16117;SDS011;8163;50.118;5.342;2022-10-16T14:52:45;1.27;;;1.10;;
16117;SDS011;8163;50.118;5.342;2022-10-16T14:55:14;1.30;;;1.20;;
16117;SDS011;8163;50.118;5.342;2022-10-16T14:57:42;1.27;;;0.98;;
16117;SDS011;8163;50.118;5.342;2022-10-16T15:36:51;1.30;;;1.20;;
16117;SDS011;8163;50.118;5.342;2022-10-16T15:39:20;2.58;;;1.35;;
16117;SDS011;8163;50.118;5.342;2022-10-16T15:41:47;4.03;;;1.80;;
16117;SDS011;8163;50.118;5.342;2022-10-16T15:44:17;1.42;;;1.40;;
16117;SDS011;8163;50.118;5.342;2022-10-16T15:46:44;2.35;;;1.40;;
16117;SDS011;8163;50.118;5.342;2022-10-16T15:49:11;2.20;;;1.45;;
16117;SDS011;8163;50.118;5.342;2022-10-16T15:51:39;1.80;;;1.45;;
16117;SDS011;8163;50.118;5.342;2022-10-16T15:54:08;3.17;;;1.60;;
16117;SDS011;8163;50.118;5.342;2022-10-16T15:56:36;3.78;;;1.50;;
16117;SDS011;8163;50.118;5.342;2022-10-16T15:59:03;3.25;;;1.75;;
16117;SDS011;8163;50.118;5.342;2022-10-16T16:01:32;2.05;;;1.60;;
16117;SDS011;8163;50.118;5.342;2022-10-16T16:03:59;1.95;;;1.50;;
16117;SDS011;8163;50.118;5.342;2022-10-16T16:06:26;1.55;;;1.45;;